Time;durP1;ratioP1;P1;durP2;ratioP2;P2;SDS_P1;SDS_P2;PMS_P1;PMS_P2;Temp;Humidity;BMP_temperature;BMP_pressure;BME280_temperature;BME280_humidity;BME280_pressure;Samples;Min_cycle;Max_cycle;Signal;HPM_P1;HPM_P2
2020/12/03 00:00:33;;;;;;;35.10;20.63;;;7.10;99.90;;;;;;4964300;28;20232;-77
2020/12/03 00:03:03;;;;;;;32.50;17.67;;;7.20;99.90;;;;;;4965341;28;20204;-84
2020/12/03 00:05:30;;;;;;;35.50;18.73;;;7.20;99.90;;;;;;4983530;28;20207;-79
2020/12/03 00:07:57;;;;;;;31.53;16.50;;;7.20;99.90;;;;;;5025488;28;20210;-79
2020/12/03 00:10:25;;;;;;;30.53;16.60;;;7.20;99.90;;;;;;5026292;28;20333;-77
2020/12/03 00:13:04;;;;;;;32.77;17.90;;;7.20;99.90;;;;;;5026746;28;20219;-78
2020/12/03 00:15:31;;;;;;;28.73;16.33;;;7.20;99.90;;;;;;5025249;28;20210;-79
2020/12/03 00:17:57;;;;;;;28.90;16.17;;;7.30;99.90;;;;;;5026323;28;20226;-78
2020/12/03 00:20:24;;;;;;;30.00;15.73;;;7.20;99.90;;;;;;5026211;28;20207;-78
2020/12/03 00:22:50;;;;;;;34.37;15.87;;;7.20;99.90;;;;;;5025504;28;20730;-82
2020/12/03 00:25:17;;;;;;;29.63;14.60;;;7.20;99.90;;;;;;5032040;28;20535;-79
2020/12/03 00:27:52;;;;;;;29.93;16.13;;;7.30;99.90;;;;;;5046253;28;20236;-78
2020/12/03 00:30:19;;;;;;;22.93;13.27;;;7.30;99.90;;;;;;5044690;28;20201;-80
2020/12/03 00:32:47;;;;;;;28.00;14.83;;;7.20;99.90;;;;;;5046591;28;20242;-78
2020/12/03 00:35:14;;;;;;;28.00;13.87;;;7.20;99.90;;;;;;5045662;28;20210;-78
2020/12/03 00:37:41;;;;;;;31.83;14.53;;;7.20;99.90;;;;;;5047987;28;20308;-83
2020/12/03 00:40:07;;;;;;;29.20;14.43;;;7.20;99.90;;;;;;5048275;28;20328;-85
2020/12/03 00:42:33;;;;;;;30.13;13.87;;;7.20;99.90;;;;;;5046059;28;20210;-86
2020/12/03 00:45:00;;;;;;;28.23;13.00;;;7.20;99.90;;;;;;5049766;28;20206;-85
2020/12/03 00:47:26;;;;;;;29.40;14.00;;;7.20;99.90;;;;;;5050272;28;20209;-85
2020/12/03 00:49:53;;;;;;;28.17;13.20;;;7.20;99.90;;;;;;5049121;28;20709;-84
2020/12/03 00:52:19;;;;;;;24.00;12.37;;;7.20;99.90;;;;;;5046648;28;20202;-80
2020/12/03 00:54:46;;;;;;;22.97;11.57;;;7.20;99.90;;;;;;5047716;28;20198;-80
2020/12/03 00:57:12;;;;;;;29.73;12.67;;;7.20;99.90;;;;;;5049091;28;20217;-85
2020/12/03 00:59:39;;;;;;;24.10;11.93;;;7.20;99.90;;;;;;5050194;28;20198;-86
2020/12/03 01:02:07;;;;;;;22.57;10.87;;;7.20;99.90;;;;;;5050356;28;20730;-89
2020/12/03 01:04:34;;;;;;;24.50;12.33;;;7.20;99.90;;;;;;5049541;28;20210;-88
2020/12/03 01:07:01;;;;;;;25.27;11.40;;;7.20;99.90;;;;;;5048311;28;20202;-81
2020/12/03 01:09:27;;;;;;;21.17;10.93;;;7.20;99.90;;;;;;5046142;28;20206;-88
2020/12/03 01:11:54;;;;;;;20.97;10.60;;;7.20;99.90;;;;;;5048929;28;20218;-90
2020/12/03 01:14:20;;;;;;;20.87;10.90;;;7.20;99.90;;;;;;5048246;28;20816;-82
2020/12/03 01:16:46;;;;;;;23.03;11.30;;;7.20;99.90;;;;;;5046626;28;20222;-81
2020/12/03 01:19:14;;;;;;;16.37;10.93;;;7.20;99.90;;;;;;5048675;28;20205;-82
2020/12/03 01:21:40;;;;;;;22.10;11.53;;;7.20;99.90;;;;;;5049390;28;20209;-89
2020/12/03 01:24:07;;;;;;;24.83;10.70;;;7.20;99.90;;;;;;5048944;28;20202;-82
2020/12/03 01:26:34;;;;;;;16.17;10.03;;;7.20;99.90;;;;;;5048364;28;20206;-82
2020/12/03 01:29:00;;;;;;;17.63;9.73;;;7.20;99.90;;;;;;5049061;28;20205;-83
2020/12/03 01:31:31;;;;;;;20.50;11.37;;;7.20;99.90;;;;;;5050339;28;20546;-84
2020/12/03 01:33:58;;;;;;;15.33;10.40;;;7.20;99.90;;;;;;5050269;28;20283;-91
2020/12/03 01:36:24;;;;;;;26.70;9.90;;;7.20;99.90;;;;;;5049585;28;20241;-90
2020/12/03 01:38:50;;;;;;;21.17;10.83;;;7.20;99.90;;;;;;5049071;28;20209;-91
2020/12/03 01:41:18;;;;;;;21.83;10.83;;;7.30;99.90;;;;;;5048812;28;20202;-91
2020/12/03 01:43:46;;;;;;;15.60;10.00;;;7.30;99.90;;;;;;5051100;28;20853;-90
2020/12/03 01:46:13;;;;;;;21.17;11.40;;;7.30;99.90;;;;;;5049857;28;20205;-90
2020/12/03 01:48:46;;;;;;;16.60;10.50;;;7.30;99.90;;;;;;5050424;28;20225;-89
2020/12/03 01:51:22;;;;;;;18.47;10.37;;;7.30;99.90;;;;;;5050830;28;20248;-90
2020/12/03 01:53:51;;;;;;;22.73;11.17;;;7.20;99.90;;;;;;5051123;28;20200;-91
2020/12/03 01:56:35;;;;;;;16.80;10.77;;;7.20;99.90;;;;;;5050291;28;20252;-89
2020/12/03 01:59:03;;;;;;;21.53;11.60;;;7.20;99.90;;;;;;5051298;28;20590;-93
2020/12/03 02:01:30;;;;;;;18.77;10.70;;;7.20;99.90;;;;;;5054104;28;20201;-90
2020/12/03 02:03:56;;;;;;;17.03;10.63;;;7.20;99.90;;;;;;5053436;28;20516;-82
2020/12/03 02:06:25;;;;;;;16.53;11.43;;;7.20;99.90;;;;;;5053062;28;20209;-89
2020/12/03 02:08:51;;;;;;;16.93;10.53;;;7.20;99.90;;;;;;5053847;28;20265;-92
2020/12/03 02:11:19;;;;;;;13.93;8.93;;;7.20;99.90;;;;;;5054300;28;20213;-85
2020/12/03 02:13:55;;;;;;;14.50;9.37;;;7.20;99.90;;;;;;5053451;28;20230;-90
2020/12/03 02:16:22;;;;;;;15.57;9.10;;;7.20;99.90;;;;;;5053534;28;20223;-91
2020/12/03 02:18:48;;;;;;;18.57;8.93;;;7.20;99.90;;;;;;5054147;28;20201;-93
2020/12/03 02:21:15;;;;;;;17.87;10.60;;;7.20;99.90;;;;;;5052490;28;20209;-87
2020/12/03 02:23:42;;;;;;;16.17;11.03;;;7.20;99.90;;;;;;5051596;28;20202;-81
2020/12/03 02:26:09;;;;;;;15.70;11.50;;;7.20;99.90;;;;;;5051958;28;20217;-86
2020/12/03 02:28:35;;;;;;;20.13;12.67;;;7.20;99.90;;;;;;5051763;28;20202;-90
2020/12/03 02:31:01;;;;;;;18.50;11.13;;;7.20;99.90;;;;;;5050473;28;20294;-85
2020/12/03 02:33:28;;;;;;;18.73;11.53;;;7.20;99.90;;;;;;5050685;28;20225;-83
2020/12/03 02:35:54;;;;;;;17.47;11.40;;;7.20;99.90;;;;;;5050934;28;20214;-89
2020/12/03 02:38:21;;;;;;;16.67;11.70;;;7.30;99.90;;;;;;5049870;28;20466;-84
2020/12/03 02:40:48;;;;;;;20.80;11.30;;;7.20;99.90;;;;;;5052392;28;20206;-91
2020/12/03 02:43:15;;;;;;;18.90;10.33;;;7.30;99.90;;;;;;5053928;28;20209;-91
2020/12/03 02:45:41;;;;;;;16.57;10.00;;;7.20;99.90;;;;;;5053793;28;20198;-92
2020/12/03 02:48:07;;;;;;;14.40;9.13;;;7.30;99.90;;;;;;5053435;28;20210;-88
2020/12/03 02:50:33;;;;;;;15.43;9.67;;;7.20;99.90;;;;;;5053041;28;20194;-91
2020/12/03 02:53:00;;;;;;;14.53;9.40;;;7.30;99.90;;;;;;5053852;28;20209;-89
2020/12/03 02:55:27;;;;;;;18.50;10.40;;;7.30;99.90;;;;;;5052374;28;20206;-91
2020/12/03 02:57:53;;;;;;;16.00;10.30;;;7.30;99.90;;;;;;5053449;28;20225;-90
2020/12/03 03:00:19;;;;;;;21.67;10.70;;;7.30;99.90;;;;;;5052842;28;20244;-90
2020/12/03 03:02:46;;;;;;;19.80;11.67;;;7.30;99.90;;;;;;5047482;28;20506;-91
2020/12/03 03:05:12;;;;;;;14.90;10.27;;;7.30;99.90;;;;;;5047318;28;20210;-91
2020/12/03 03:07:38;;;;;;;14.43;10.50;;;7.30;99.90;;;;;;5048880;28;20201;-84
2020/12/03 03:10:04;;;;;;;16.83;10.20;;;7.30;99.90;;;;;;5050298;28;20319;-82
2020/12/03 03:12:31;;;;;;;12.90;9.77;;;7.30;99.90;;;;;;5047357;28;20653;-83
2020/12/03 03:14:58;;;;;;;13.60;9.47;;;7.30;99.90;;;;;;5048229;28;20232;-82
2020/12/03 03:18:30;;;;;;;18.87;7.97;;;7.30;99.90;;;;;;5012037;28;20230;-82
2020/12/03 03:24:30;;;;;;;8.43;5.63;;;7.30;99.90;;;;;;4975861;28;20202;-84
2020/12/03 03:26:57;;;;;;;11.17;6.60;;;7.30;99.90;;;;;;5052493;28;20200;-82
2020/12/03 03:29:27;;;;;;;12.20;6.40;;;7.30;99.90;;;;;;5048792;28;20205;-82
2020/12/03 03:31:53;;;;;;;10.73;4.77;;;7.30;99.90;;;;;;5048413;28;20205;-91
2020/12/03 03:34:19;;;;;;;10.30;4.80;;;7.40;99.90;;;;;;5051585;28;20201;-82
2020/12/03 03:36:46;;;;;;;9.20;4.53;;;7.30;99.90;;;;;;5047194;28;20218;-82
2020/12/03 03:39:17;;;;;;;9.97;4.30;;;7.30;99.90;;;;;;5047556;28;20205;-81
2020/12/03 03:41:44;;;;;;;11.93;5.30;;;7.30;99.90;;;;;;5047797;28;20198;-81
2020/12/03 03:44:10;;;;;;;15.83;7.47;;;7.30;99.90;;;;;;5047435;28;20463;-81
2020/12/03 03:46:37;;;;;;;14.23;6.83;;;7.20;99.90;;;;;;5047646;28;20205;-84
2020/12/03 03:49:04;;;;;;;15.13;7.70;;;7.30;99.90;;;;;;5046556;28;20210;-82
2020/12/03 03:51:30;;;;;;;15.43;7.93;;;7.20;99.90;;;;;;5047190;28;20194;-82
2020/12/03 03:53:57;;;;;;;17.73;8.53;;;7.20;99.90;;;;;;5046157;28;20608;-82
2020/12/03 03:56:23;;;;;;;13.30;8.10;;;7.30;99.90;;;;;;5045553;28;20206;-82
2020/12/03 03:58:50;;;;;;;11.60;8.00;;;7.20;99.90;;;;;;5044664;28;20206;-81
2020/12/03 04:01:16;;;;;;;23.90;9.13;;;7.30;99.90;;;;;;5044495;28;20201;-81
2020/12/03 04:03:43;;;;;;;17.47;9.27;;;7.20;99.90;;;;;;5046271;28;20198;-80
2020/12/03 04:06:09;;;;;;;17.40;9.00;;;7.20;99.90;;;;;;5045985;28;20574;-80
2020/12/03 04:08:36;;;;;;;18.70;10.57;;;7.30;99.90;;;;;;5045976;28;20229;-81
2020/12/03 04:11:02;;;;;;;13.80;9.20;;;7.20;99.90;;;;;;5046064;28;20229;-80
2020/12/03 04:13:28;;;;;;;18.47;10.10;;;7.20;99.90;;;;;;5045894;28;20241;-80
2020/12/03 04:15:55;;;;;;;16.87;9.27;;;7.20;99.90;;;;;;5045984;28;20209;-81
2020/12/03 04:18:26;;;;;;;20.07;11.00;;;7.20;99.90;;;;;;5046500;28;20222;-81
2020/12/03 04:20:54;;;;;;;14.97;10.00;;;7.20;99.90;;;;;;5045555;28;20588;-81
2020/12/03 04:23:21;;;;;;;18.77;11.70;;;7.20;99.90;;;;;;5044891;28;20213;-80
2020/12/03 04:25:47;;;;;;;18.43;11.77;;;7.20;99.90;;;;;;5045736;28;20198;-79
2020/12/03 04:28:14;;;;;;;20.37;11.60;;;7.20;99.90;;;;;;5045382;28;20234;-81
2020/12/03 04:30:40;;;;;;;19.00;12.83;;;7.20;99.90;;;;;;5045056;28;20240;-81
2020/12/03 04:33:06;;;;;;;19.63;13.77;;;7.10;99.90;;;;;;5045453;28;20249;-80
2020/12/03 04:35:33;;;;;;;19.77;13.77;;;7.10;99.90;;;;;;5045538;28;20204;-81
2020/12/03 04:38:00;;;;;;;26.53;13.93;;;7.10;99.90;;;;;;5048872;28;20225;-90
2020/12/03 04:40:30;;;;;;;23.60;15.23;;;7.10;99.90;;;;;;5052193;28;20205;-91
2020/12/03 04:43:00;;;;;;;22.17;14.60;;;7.10;99.90;;;;;;5052057;28;20212;-90
2020/12/03 04:45:37;;;;;;;20.83;13.90;;;7.10;99.90;;;;;;5051992;28;20198;-91
2020/12/03 04:48:18;;;;;;;19.37;13.43;;;7.10;99.90;;;;;;5051556;28;20441;-91
2020/12/03 04:50:53;;;;;;;22.17;14.63;;;7.10;99.90;;;;;;5050832;28;20542;-79
2020/12/03 04:53:37;;;;;;;20.93;15.47;;;7.10;99.90;;;;;;5044963;28;20205;-81
2020/12/03 04:56:07;;;;;;;22.27;16.30;;;7.00;99.90;;;;;;5045293;28;20201;-84
2020/12/03 04:58:48;;;;;;;24.40;17.50;;;7.00;99.90;;;;;;5045349;28;20431;-83
2020/12/03 05:01:29;;;;;;;23.40;17.67;;;7.00;99.90;;;;;;5044643;28;20229;-80
2020/12/03 05:04:01;;;;;;;29.10;18.10;;;7.00;99.90;;;;;;5047666;28;20198;-84
2020/12/03 05:06:46;;;;;;;29.10;19.80;;;6.90;99.90;;;;;;5044369;28;20849;-79
2020/12/03 05:09:20;;;;;;;28.83;18.13;;;6.90;99.90;;;;;;5044122;28;20301;-80
2020/12/03 05:11:53;;;;;;;26.90;18.23;;;6.90;99.90;;;;;;5044087;28;20233;-80
2020/12/03 05:14:34;;;;;;;29.60;19.40;;;6.90;99.90;;;;;;5044962;28;20360;-80
2020/12/03 05:17:16;;;;;;;33.33;20.17;;;6.80;99.90;;;;;;5044812;28;20892;-81
2020/12/03 05:19:44;;;;;;;30.70;18.60;;;6.80;99.90;;;;;;5044710;28;20193;-83
2020/12/03 05:22:16;;;;;;;26.83;19.77;;;6.80;99.90;;;;;;5045024;28;20284;-81
2020/12/03 05:24:43;;;;;;;27.40;18.60;;;6.80;99.90;;;;;;5044995;28;20206;-81
2020/12/03 05:27:19;;;;;;;24.77;19.07;;;6.80;99.90;;;;;;5044308;28;20205;-86
2020/12/03 05:29:46;;;;;;;30.07;20.90;;;6.80;99.90;;;;;;5045338;28;20199;-81
2020/12/03 05:32:13;;;;;;;28.70;20.00;;;6.80;99.90;;;;;;5044101;28;20736;-81
2020/12/03 05:34:39;;;;;;;28.70;20.23;;;6.70;99.90;;;;;;5044314;28;20271;-80
2020/12/03 05:37:12;;;;;;;31.90;21.70;;;6.80;99.90;;;;;;5048790;28;20237;-86
2020/12/03 05:39:42;;;;;;;28.20;21.37;;;6.70;99.90;;;;;;5051319;28;20281;-90
2020/12/03 05:42:13;;;;;;;34.90;22.97;;;6.80;99.90;;;;;;5050872;28;20194;-92
2020/12/03 05:44:41;;;;;;;29.90;22.17;;;6.70;99.90;;;;;;5051056;28;20490;-89
2020/12/03 05:47:21;;;;;;;33.93;21.97;;;6.70;99.90;;;;;;5050579;28;20194;-90
2020/12/03 05:49:48;;;;;;;30.20;21.17;;;6.70;99.90;;;;;;5050738;28;20201;-91
2020/12/03 05:52:17;;;;;;;33.33;22.80;;;6.70;99.90;;;;;;5050621;28;20198;-83
2020/12/03 05:54:58;;;;;;;34.67;22.87;;;6.70;99.90;;;;;;5050677;28;20209;-91
2020/12/03 05:57:30;;;;;;;33.90;21.63;;;6.60;99.90;;;;;;5049464;28;20248;-90
2020/12/03 06:00:18;;;;;;;30.70;22.67;;;6.60;99.90;;;;;;5051427;28;20197;-91
2020/12/03 06:02:58;;;;;;;28.53;19.93;;;6.60;99.90;;;;;;5050936;28;20198;-91
2020/12/03 06:05:30;;;;;;;29.73;21.60;;;6.50;99.90;;;;;;5050334;28;20292;-87
2020/12/03 06:08:07;;;;;;;35.50;23.37;;;6.50;99.90;;;;;;5044065;28;20190;-82
2020/12/03 06:10:59;;;;;;;34.63;23.60;;;6.50;99.90;;;;;;5045679;28;20202;-81
2020/12/03 06:13:41;;;;;;;38.77;24.73;;;6.50;99.90;;;;;;5045577;28;20920;-82
2020/12/03 06:16:22;;;;;;;32.57;24.23;;;6.50;99.90;;;;;;5044128;28;20190;-84
2020/12/03 06:19:14;;;;;;;35.80;23.00;;;6.50;99.90;;;;;;5045047;28;20232;-82
2020/12/03 06:21:54;;;;;;;28.77;21.63;;;6.50;99.90;;;;;;5044694;28;20202;-80
2020/12/03 06:24:44;;;;;;;32.60;20.67;;;6.50;99.90;;;;;;5045325;28;20198;-83
2020/12/03 06:27:33;;;;;;;25.60;20.67;;;6.60;99.90;;;;;;5044763;28;20235;-82
2020/12/03 06:30:04;;;;;;;31.03;19.87;;;6.50;99.90;;;;;;5045134;28;20762;-81
2020/12/03 06:33:08;;;;;;;25.67;19.53;;;6.50;99.90;;;;;;5045627;28;20238;-83
2020/12/03 06:35:44;;;;;;;29.90;19.37;;;6.60;99.90;;;;;;5044863;28;20210;-79
2020/12/03 06:38:33;;;;;;;27.23;18.60;;;6.60;99.90;;;;;;5050065;28;20218;-90
2020/12/03 06:41:16;;;;;;;21.63;16.07;;;6.60;99.90;;;;;;5049687;28;20229;-86
2020/12/03 06:43:46;;;;;;;20.80;16.27;;;6.60;99.90;;;;;;5050165;28;20209;-90
2020/12/03 06:47:01;;;;;;;28.33;17.40;;;6.60;99.90;;;;;;5050138;28;20194;-89
2020/12/03 06:50:04;;;;;;;24.00;15.80;;;6.60;99.90;;;;;;5048356;28;20202;-88
2020/12/03 06:52:54;;;;;;;22.80;15.30;;;6.60;99.90;;;;;;5053886;28;20208;-91
2020/12/03 06:55:57;;;;;;;20.63;13.90;;;6.60;99.90;;;;;;5053614;28;20725;-89
2020/12/03 06:59:02;;;;;;;17.20;13.13;;;6.60;99.90;;;;;;5052517;28;20213;-90
2020/12/03 07:02:08;;;;;;;17.67;13.10;;;6.60;99.90;;;;;;4957107;28;20233;-91
2020/12/03 07:05:06;;;;;;;22.43;13.50;;;6.60;99.90;;;;;;5042719;28;20293;-92
2020/12/03 07:08:04;;;;;;;20.60;14.63;;;6.60;99.90;;;;;;5041622;28;20220;-91
2020/12/03 07:11:00;;;;;;;23.07;15.57;;;6.60;99.90;;;;;;5053896;28;20637;-92
2020/12/03 07:13:59;;;;;;;25.43;16.83;;;6.60;99.90;;;;;;5053511;28;20222;-92
2020/12/03 07:17:03;;;;;;;28.83;18.97;;;6.60;99.90;;;;;;5053964;28;20187;-93
2020/12/03 07:19:55;;;;;;;32.27;21.20;;;6.60;99.90;;;;;;5054023;28;20205;-94
2020/12/03 07:22:26;;;;;;;31.07;20.30;;;6.60;99.90;;;;;;5050924;28;20206;-82
2020/12/03 07:24:56;;;;;;;32.50;22.60;;;6.60;99.90;;;;;;5048021;28;20213;-80
2020/12/03 07:27:47;;;;;;;36.77;23.87;;;6.60;99.90;;;;;;5050517;28;20862;-88
2020/12/03 07:30:34;;;;;;;30.43;22.17;;;6.60;99.90;;;;;;5050757;28;20232;-87
2020/12/03 07:33:03;;;;;;;36.93;25.03;;;6.60;99.90;;;;;;5048783;28;20242;-84
2020/12/03 07:35:35;;;;;;;35.93;26.63;;;6.60;99.90;;;;;;5048381;28;20205;-80
2020/12/03 07:38:15;;;;;;;43.30;27.27;;;6.60;99.90;;;;;;5051949;28;20221;-92
2020/12/03 07:40:43;;;;;;;48.13;29.60;;;6.60;99.90;;;;;;5052741;28;20197;-93
2020/12/03 07:43:17;;;;;;;46.67;30.37;;;6.70;99.90;;;;;;5052673;28;20198;-90
2020/12/03 07:45:47;;;;;;;47.80;28.07;;;6.70;99.90;;;;;;5053042;28;20210;-92
2020/12/03 07:48:18;;;;;;;44.50;29.90;;;6.70;99.90;;;;;;5052236;28;20209;-92
2020/12/03 08:07:57;;;;;;;52.73;31.97;;;6.80;99.90;;;;;;4993006;28;20213;-88
2020/12/03 08:10:37;;;;;;;54.63;33.33;;;6.80;99.90;;;;;;5029976;28;20202;-90
2020/12/03 08:13:14;;;;;;;59.47;33.30;;;6.80;99.90;;;;;;5029490;28;20354;-89
2020/12/03 08:15:41;;;;;;;56.23;33.13;;;6.80;99.90;;;;;;5030190;28;20291;-90
2020/12/03 08:18:38;;;;;;;61.47;33.70;;;6.80;99.90;;;;;;5029609;28;20222;-90
2020/12/03 08:21:04;;;;;;;62.67;38.00;;;6.80;99.90;;;;;;5029354;28;20627;-91
2020/12/03 08:23:32;;;;;;;62.63;37.77;;;6.80;99.90;;;;;;5030125;28;20203;-91
2020/12/03 08:25:58;;;;;;;67.17;38.17;;;6.80;99.90;;;;;;5029962;28;20203;-89
2020/12/03 08:28:27;;;;;;;68.40;39.97;;;6.80;99.90;;;;;;5029566;28;20266;-91
2020/12/03 08:30:53;;;;;;;70.07;38.03;;;6.80;99.90;;;;;;5028562;28;20206;-88
2020/12/03 08:33:31;;;;;;;67.23;39.07;;;6.80;99.90;;;;;;5029471;28;20227;-88
2020/12/03 08:36:00;;;;;;;67.47;38.10;;;6.80;99.90;;;;;;5029257;28;20206;-91
2020/12/03 08:38:30;;;;;;;67.87;37.53;;;6.80;99.90;;;;;;5024732;28;20309;-81
2020/12/03 08:41:00;;;;;;;65.40;36.90;;;6.80;99.90;;;;;;5024967;28;20493;-80
2020/12/03 08:43:27;;;;;;;64.73;37.17;;;6.80;99.90;;;;;;5023355;28;20279;-83
2020/12/03 08:46:02;;;;;;;61.57;36.17;;;6.80;99.90;;;;;;5021242;28;20277;-88
2020/12/03 08:48:33;;;;;;;59.30;33.67;;;6.80;99.90;;;;;;5023034;28;20632;-78
2020/12/03 08:51:02;;;;;;;59.87;34.67;;;6.80;99.90;;;;;;5031594;28;20208;-77
2020/12/03 08:53:30;;;;;;;58.47;32.50;;;6.80;99.90;;;;;;5044698;28;20198;-78
2020/12/03 08:56:21;;;;;;;57.17;31.07;;;6.80;99.90;;;;;;5044872;28;20296;-81
2020/12/03 08:58:56;;;;;;;54.57;31.27;;;6.80;99.90;;;;;;5044195;28;20249;-79
2020/12/03 09:01:25;;;;;;;54.33;30.87;;;6.80;99.90;;;;;;5044025;28;20205;-81
2020/12/03 09:03:55;;;;;;;51.77;27.73;;;6.80;99.90;;;;;;5042948;28;20206;-80
2020/12/03 09:06:22;;;;;;;50.77;30.33;;;6.80;99.90;;;;;;5043834;28;20190;-81
2020/12/03 09:08:48;;;;;;;56.23;30.17;;;6.80;99.90;;;;;;5044164;28;20204;-80
2020/12/03 09:11:14;;;;;;;45.90;27.87;;;6.80;99.90;;;;;;5043285;28;20206;-79
2020/12/03 09:13:41;;;;;;;48.97;28.47;;;6.80;99.90;;;;;;5044287;28;20232;-79
2020/12/03 09:16:13;;;;;;;48.60;26.37;;;6.80;99.90;;;;;;5043268;28;20202;-85
2020/12/03 09:18:42;;;;;;;39.27;24.67;;;6.80;99.90;;;;;;5042427;28;20233;-80
2020/12/03 09:21:10;;;;;;;39.93;23.27;;;6.90;99.90;;;;;;5043380;28;20205;-78
2020/12/03 09:23:39;;;;;;;36.50;21.40;;;6.90;99.90;;;;;;5045048;28;20201;-79
2020/12/03 09:26:15;;;;;;;35.63;20.50;;;6.90;99.90;;;;;;5043901;28;20205;-78
2020/12/03 09:28:45;;;;;;;29.10;18.00;;;6.80;99.90;;;;;;5045039;28;20190;-82
2020/12/03 09:31:12;;;;;;;29.93;16.60;;;6.80;99.90;;;;;;5044517;28;20201;-81
2020/12/03 09:33:39;;;;;;;28.30;16.00;;;6.80;99.90;;;;;;5044452;28;20253;-85
2020/12/03 09:36:05;;;;;;;26.97;15.80;;;6.80;99.90;;;;;;5045154;28;20198;-82
2020/12/03 09:38:33;;;;;;;23.03;14.97;;;6.80;99.90;;;;;;5045546;28;20264;-88
2020/12/03 09:40:59;;;;;;;25.50;14.83;;;6.80;99.90;;;;;;5048440;28;20210;-86
2020/12/03 09:43:27;;;;;;;27.63;16.00;;;6.80;99.90;;;;;;5046750;28;20213;-83
2020/12/03 09:45:56;;;;;;;34.60;17.83;;;6.80;99.90;;;;;;5050308;28;20202;-87
2020/12/03 09:48:26;;;;;;;29.87;15.53;;;6.70;99.90;;;;;;5050757;28;20236;-89
2020/12/03 09:50:53;;;;;;;26.13;15.73;;;6.70;99.90;;;;;;5052146;28;20197;-79
2020/12/03 09:53:21;;;;;;;29.87;16.90;;;6.70;99.90;;;;;;5043931;28;20208;-78
2020/12/03 09:55:48;;;;;;;29.57;16.43;;;6.70;99.90;;;;;;5043730;28;20208;-79
2020/12/03 09:58:19;;;;;;;31.60;16.30;;;6.70;99.90;;;;;;5043545;28;20925;-78
2020/12/03 10:00:47;;;;;;;27.07;16.03;;;6.70;99.90;;;;;;5043631;28;20190;-79
2020/12/03 10:03:50;;;;;;;31.30;18.10;;;6.70;99.90;;;;;;5044267;28;20221;-79
2020/12/03 10:06:25;;;;;;;30.70;17.07;;;6.70;99.90;;;;;;5044552;28;20205;-78
2020/12/03 10:09:17;;;;;;;33.60;19.37;;;6.70;99.90;;;;;;5043760;28;20557;-78
2020/12/03 10:12:00;;;;;;;40.80;21.47;;;6.70;99.90;;;;;;5041613;28;20233;-81
2020/12/03 10:14:44;;;;;;;39.37;22.13;;;6.70;99.90;;;;;;5044542;28;20221;-78
2020/12/03 10:17:15;;;;;;;38.83;23.87;;;6.80;99.90;;;;;;5043755;28;20196;-80
2020/12/03 10:19:43;;;;;;;53.80;28.90;;;6.80;99.90;;;;;;5042697;28;20186;-80
2020/12/03 10:22:15;;;;;;;56.47;31.57;;;6.80;99.90;;;;;;5044481;28;20213;-82
2020/12/03 10:24:47;;;;;;;53.90;29.57;;;6.90;99.90;;;;;;5046890;28;20194;-79
2020/12/03 10:27:21;;;;;;;56.90;31.97;;;6.90;99.90;;;;;;5047651;28;20186;-88
2020/12/03 10:29:53;;;;;;;59.90;32.27;;;6.90;99.90;;;;;;5049094;28;20197;-80
2020/12/03 10:32:21;;;;;;;64.47;33.53;;;6.90;99.90;;;;;;5048949;28;20197;-84
2020/12/03 10:34:48;;;;;;;58.33;31.97;;;6.90;99.90;;;;;;5046555;28;20234;-79
2020/12/03 10:37:26;;;;;;;57.43;33.60;;;6.90;99.90;;;;;;5046509;28;20428;-79
2020/12/03 10:39:56;;;;;;;57.47;32.47;;;7.00;99.90;;;;;;5049124;28;20190;-83
2020/12/03 10:42:31;;;;;;;61.40;33.83;;;7.00;99.90;;;;;;5048688;28;20198;-86
2020/12/03 10:45:04;;;;;;;60.73;33.83;;;7.00;99.90;;;;;;5051397;28;20471;-88
2020/12/03 10:47:41;;;;;;;57.83;33.20;;;7.00;99.90;;;;;;5052588;28;20244;-93
2020/12/03 10:50:11;;;;;;;54.63;33.47;;;6.90;99.90;;;;;;5052903;28;20197;-88
2020/12/03 10:52:40;;;;;;;64.27;32.67;;;6.90;99.90;;;;;;5053177;28;20510;-86
2020/12/03 10:55:08;;;;;;;56.80;32.70;;;6.90;99.90;;;;;;5048827;28;20205;-83
2020/12/03 10:57:42;;;;;;;63.10;32.47;;;6.90;99.90;;;;;;5047993;28;20597;-81
2020/12/03 11:00:11;;;;;;;59.07;31.33;;;6.90;99.90;;;;;;5047946;28;20209;-78
2020/12/03 11:02:41;;;;;;;59.23;33.03;;;6.90;99.90;;;;;;5050668;28;20594;-88
2020/12/03 11:05:09;;;;;;;56.73;31.27;;;7.00;99.90;;;;;;5058782;28;20198;-83
2020/12/03 11:07:36;;;;;;;60.30;32.10;;;7.00;99.90;;;;;;5055197;28;20241;-86
2020/12/03 11:10:03;;;;;;;58.27;30.93;;;7.00;99.90;;;;;;5046709;28;20260;-80
2020/12/03 11:12:31;;;;;;;63.13;33.43;;;7.00;99.90;;;;;;5046883;28;20237;-85
2020/12/03 11:15:03;;;;;;;58.47;31.40;;;6.90;99.90;;;;;;5048219;28;20209;-80
2020/12/03 11:18:02;;;;;;;64.10;33.60;;;6.90;99.90;;;;;;5050113;28;20194;-83
2020/12/03 11:20:32;;;;;;;54.83;31.07;;;6.90;99.90;;;;;;5028706;28;20201;-89
2020/12/03 11:23:10;;;;;;;60.73;31.60;;;7.00;99.90;;;;;;5049988;28;20210;-86
2020/12/03 11:25:37;;;;;;;53.17;31.00;;;7.00;99.90;;;;;;5051515;28;20194;-87
2020/12/03 11:28:35;;;;;;;59.03;31.10;;;7.00;99.90;;;;;;5050666;28;20229;-88
2020/12/03 11:31:04;;;;;;;49.87;30.90;;;7.00;99.90;;;;;;4987246;28;20573;-82
2020/12/03 11:33:36;;;;;;;46.43;29.97;;;7.00;99.90;;;;;;5035636;28;20245;-79
2020/12/03 11:36:16;;;;;;;43.63;26.67;;;7.00;99.90;;;;;;5049381;28;20189;-80
2020/12/03 11:38:50;;;;;;;47.60;27.73;;;7.00;99.90;;;;;;5046933;28;20613;-90
2020/12/03 11:41:24;;;;;;;38.73;26.53;;;7.00;99.90;;;;;;5046614;28;20204;-83
2020/12/03 11:44:31;;;;;;;41.40;27.00;;;7.00;99.90;;;;;;5048066;28;20205;-81
2020/12/03 11:47:44;;;;;;;39.80;25.27;;;7.00;99.90;;;;;;5047665;28;20222;-82
2020/12/03 11:50:16;;;;;;;38.30;24.13;;;7.00;99.90;;;;;;5048095;28;20206;-81
2020/12/03 11:52:42;;;;;;;35.07;23.43;;;7.00;99.90;;;;;;5048239;28;20206;-81
2020/12/03 11:55:19;;;;;;;39.33;24.93;;;7.00;99.90;;;;;;5048426;28;20205;-80
2020/12/03 11:57:46;;;;;;;35.10;23.57;;;7.00;99.90;;;;;;5047495;28;20688;-85
2020/12/03 12:00:17;;;;;;;35.93;23.37;;;7.00;99.90;;;;;;5046293;28;20204;-79
2020/12/03 12:02:45;;;;;;;34.03;22.03;;;7.00;99.90;;;;;;5046933;28;20198;-84
2020/12/03 12:05:19;;;;;;;32.87;21.13;;;7.00;99.90;;;;;;5045573;28;20212;-80
2020/12/03 12:07:55;;;;;;;31.00;20.77;;;7.00;99.90;;;;;;5045448;28;20600;-81
2020/12/03 12:10:25;;;;;;;26.73;19.90;;;7.00;99.90;;;;;;5045695;28;20204;-78
2020/12/03 12:12:51;;;;;;;29.73;20.10;;;7.10;99.90;;;;;;5043674;28;20599;-82
2020/12/03 12:15:18;;;;;;;25.70;19.37;;;7.10;99.90;;;;;;5043580;28;20564;-82
2020/12/03 12:17:45;;;;;;;27.83;20.03;;;7.10;99.90;;;;;;5043435;28;20228;-79
2020/12/03 12:20:12;;;;;;;26.63;19.50;;;7.10;99.90;;;;;;5043290;28;20258;-79
2020/12/03 12:22:39;;;;;;;24.80;18.17;;;7.10;99.90;;;;;;5045059;28;20202;-79
2020/12/03 12:25:06;;;;;;;25.40;18.60;;;7.00;99.90;;;;;;5044256;28;20216;-79
2020/12/03 12:27:33;;;;;;;30.60;19.03;;;7.10;99.90;;;;;;5044555;28;20212;-78
2020/12/03 12:29:59;;;;;;;29.07;19.60;;;7.10;99.90;;;;;;5045155;28;20568;-80
2020/12/03 12:32:25;;;;;;;28.37;20.47;;;7.10;99.90;;;;;;5044304;28;20194;-79
2020/12/03 12:34:52;;;;;;;26.07;20.53;;;7.10;99.90;;;;;;5044787;28;20222;-83
2020/12/03 12:37:19;;;;;;;31.10;20.53;;;7.10;99.90;;;;;;5043654;28;20213;-79
2020/12/03 12:39:47;;;;;;;28.90;20.70;;;7.10;99.90;;;;;;5045502;28;20700;-83
2020/12/03 12:42:13;;;;;;;31.13;20.53;;;7.10;99.90;;;;;;5044433;28;20205;-84
2020/12/03 12:44:40;;;;;;;28.60;21.70;;;7.10;99.90;;;;;;5043914;28;20513;-79
2020/12/03 12:47:06;;;;;;;29.43;20.57;;;7.10;99.90;;;;;;5043823;28;20227;-80
2020/12/03 12:49:33;;;;;;;34.00;21.90;;;7.10;99.90;;;;;;5043537;28;20611;-79
2020/12/03 12:52:00;;;;;;;32.13;22.50;;;7.10;99.90;;;;;;5044393;28;20273;-79
2020/12/03 12:54:27;;;;;;;32.03;23.13;;;7.10;99.90;;;;;;5044171;28;20205;-79
2020/12/03 12:56:55;;;;;;;28.80;21.30;;;7.10;99.90;;;;;;5043948;28;20198;-78
2020/12/03 12:59:22;;;;;;;35.03;24.00;;;7.10;99.90;;;;;;5044326;28;20302;-78
2020/12/03 13:01:50;;;;;;;36.37;23.73;;;7.10;99.90;;;;;;5044995;28;20292;-86
2020/12/03 13:04:18;;;;;;;29.83;23.07;;;7.10;99.90;;;;;;5045554;28;20198;-85
2020/12/03 13:06:44;;;;;;;36.43;22.93;;;7.10;99.90;;;;;;5047017;28;20194;-80
2020/12/03 13:09:13;;;;;;;35.60;21.73;;;7.10;99.90;;;;;;5047412;28;20209;-83
2020/12/03 13:11:39;;;;;;;31.03;22.53;;;7.10;99.90;;;;;;5047742;28;20202;-89
2020/12/03 13:14:07;;;;;;;30.00;21.20;;;7.10;99.90;;;;;;5048163;28;20198;-88
2020/12/03 13:16:34;;;;;;;33.00;23.07;;;7.10;99.90;;;;;;5047867;28;20221;-87
2020/12/03 13:19:04;;;;;;;37.70;25.23;;;7.10;99.90;;;;;;5047250;28;20226;-87
2020/12/03 13:21:31;;;;;;;39.87;26.47;;;7.00;99.90;;;;;;5048061;28;20212;-90
2020/12/03 13:23:57;;;;;;;42.97;27.27;;;7.00;99.90;;;;;;5046453;28;20245;-81